Strona główna
METAR-TAF:

METAR-TAF

Lotnisko :

Linton-on-Ouse, Anglia

Szerokość geograficzna: 54-03N, Długość geograficzna: 001-15W, wysokość: 16 m

Aktualna obserwacja pogody

Raport powstał 1 godzina i 21 minut temu, godzina 18:50 UTC
Wiatr 3 kt od wschodnio-północny wschód
Temperatura 4°C
Wilgotność 93%
Ciśnienie 1018 hPa
Widzialność: 8000 m

METAR: EGXU 271850Z AUTO 07003KT 8000 FEW029/// BKN046/// 04/03 Q1018

czas: 20:11 (20:11 UTC)

Prognoza

Raport powstał 6 godziny i 22 minut temu, godzina 13:49 UTC
Prognoza ważna od 27 godzina 15 UTC do 27 godzina 19 UTC
Wiatr 3 kt od południowo-południowy wschód
Widzialność 10 km lub więcej
Mało chmury na wysokości 4500 ft
Prawdopodobieństwo 40%
od 27 godzina 16 UTC do 27 godzina 19 UTC
Widzialność: 2000 m
zamglenie

TAF: EGXU 271349Z 2715/2719 15003KT 9999 FEW045 PROB40 2716/2719 2000 BR

Obserwacja i prognoza pogody dla ponad 4000 lotnisk (raport METAR i TAF).

Dostępne stacje oznaczono żółtymi i czerwonymi punktami na mapie.

Najedź kursorem aby zobaczyć nazwę stacji.

Kliknij aby zobaczyć obserwacje i prognozy pogody.

Aby zmienić mapę: kliknij na zielony przycisk z czarnym krzyżykiem, aby powiększyć; na zielony przycisk z myślnikiem, aby pomniejszyć; na zielone strzałki, aby przejść do map sąsiednich.


METAR-TAF: